Terminal Aerodrome Forecast
Issued by NWS

Home | Current Version | Previous Version | Text Only | Print | Product List | Glossary Off
Versions: 1 2 3 4 5 6 7 8 9 10 11 12 13 14 15 16 17 18 19 20 21 22

000
FTUS43 KICT 160522
TAFRSL
TAF
KRSL 160522Z 1606/1706 12013KT P6SM SCT030 BKN150
     FM160900 15009KT 4SM BR BKN015
      TEMPO 1609/1613 4SM BR OVC006
     FM161600 15014G22KT P6SM SCT020 BKN035
     FM170100 12010KT P6SM SCT030=

USA.gov is the U.S. government's official web portal to all federal, state and local government web resources and services.